createdAt,value
2019-04-29T00:02:27.286Z,12.23
2019-04-29T00:04:56.702Z,12.19
2019-04-29T00:07:26.153Z,12.11
2019-04-29T00:09:55.558Z,12.10
2019-04-29T00:12:24.960Z,12.11
2019-04-29T00:15:15.153Z,12.09
2019-04-29T00:17:50.929Z,12.05
2019-04-29T00:20:39.213Z,11.99
2019-04-29T00:23:08.693Z,11.95
2019-04-29T00:25:38.149Z,11.88
2019-04-29T00:28:07.691Z,11.84
2019-04-29T00:30:37.130Z,11.76
2019-04-29T00:33:06.542Z,11.73
2019-04-29T00:35:36.147Z,11.67
2019-04-29T00:38:24.429Z,11.61
2019-04-29T00:41:11.614Z,11.56
2019-04-29T00:43:45.785Z,11.49
2019-04-29T00:46:15.331Z,11.41
2019-04-29T00:48:44.744Z,11.34
2019-04-29T00:51:14.157Z,11.30
2019-04-29T00:53:44.046Z,11.25
2019-04-29T00:56:13.484Z,11.20
2019-04-29T00:58:42.909Z,11.27
2019-04-29T01:01:15.868Z,11.31
2019-04-29T01:03:45.295Z,11.31
2019-04-29T05:36:28.880Z,15.72
2019-04-29T05:39:17.172Z,16.05
2019-04-29T05:41:46.583Z,16.52
2019-04-29T05:44:34.033Z,16.78
2019-04-29T05:47:25.431Z,16.82
2019-04-29T05:50:16.792Z,16.93
2019-04-29T05:53:11.450Z,16.90
2019-04-29T05:55:39.538Z,16.72
2019-04-29T05:58:11.788Z,16.69
2019-04-29T06:00:43.036Z,16.77
2019-04-29T06:03:12.464Z,16.72
2019-04-29T06:05:41.893Z,16.76
2019-04-29T06:08:11.336Z,16.91
2019-04-29T06:10:42.119Z,17.20
2019-04-29T06:13:11.695Z,17.52
2019-04-29T06:15:41.101Z,17.85
2019-04-29T06:18:10.509Z,18.19
2019-04-29T06:20:39.915Z,18.29
2019-04-29T06:23:09.356Z,18.57
2019-04-29T06:25:38.774Z,18.91
2019-04-29T06:28:08.195Z,18.83
2019-04-29T06:30:40.566Z,18.85
2019-04-29T06:33:09.188Z,18.74
2019-04-29T06:35:38.612Z,18.92
2019-04-29T06:38:08.112Z,19.09
2019-04-29T06:40:37.534Z,19.46
2019-04-29T06:43:07.015Z,19.43
2019-04-29T06:45:36.454Z,19.14
2019-04-29T06:48:05.890Z,19.07
2019-04-29T06:50:35.317Z,19.23
2019-04-29T06:53:05.037Z,19.39
2019-04-29T06:55:34.468Z,19.77
2019-04-29T06:58:03.878Z,20.05
2019-04-29T07:00:33.312Z,20.34
2019-04-29T07:03:02.739Z,20.34
2019-04-29T07:05:32.301Z,20.52
2019-04-29T07:08:01.773Z,20.90
2019-04-29T07:10:31.315Z,20.75
2019-04-29T07:13:00.746Z,20.50
2019-04-29T07:15:30.184Z,20.49
2019-04-29T07:17:59.589Z,20.68
2019-04-29T07:20:32.369Z,20.99
2019-04-29T07:23:00.747Z,21.54
2019-04-29T07:25:31.397Z,22.01
2019-04-29T07:28:00.846Z,22.08
2019-04-29T07:30:30.276Z,21.72
2019-04-29T07:32:59.705Z,21.82
2019-04-29T07:35:29.141Z,22.13
2019-04-29T07:37:58.595Z,22.72
2019-04-29T07:40:28.031Z,22.98
2019-04-29T07:42:57.463Z,23.33
2019-04-29T07:45:58.888Z,23.78
2019-04-29T07:48:26.103Z,23.96
2019-04-29T07:50:59.504Z,23.86
2019-04-29T07:53:34.496Z,24.01
2019-04-29T07:56:01.731Z,24.16
2019-04-29T07:58:28.982Z,24.20
2019-04-29T08:00:58.410Z,24.48
2019-04-29T08:03:27.824Z,24.99
2019-04-29T08:05:57.227Z,25.04
2019-04-29T08:08:26.685Z,25.24
2019-04-29T08:10:56.819Z,25.24
2019-04-29T08:13:26.960Z,25.11
2019-04-29T08:15:56.401Z,25.10
2019-04-29T08:18:25.844Z,24.93
2019-04-29T08:20:55.290Z,24.57
2019-04-29T08:23:24.701Z,24.53
2019-04-29T08:25:57.463Z,24.54
2019-04-29T08:28:25.263Z,24.60
2019-04-29T08:30:54.728Z,24.27
2019-04-29T08:33:24.139Z,24.34
2019-04-29T08:35:53.570Z,24.24
2019-04-29T08:38:22.993Z,24.48
2019-04-29T08:40:52.420Z,24.60
2019-04-29T08:43:35.068Z,24.61
2019-04-29T08:46:10.688Z,24.43
2019-04-29T08:48:40.121Z,24.43
2019-04-29T08:51:09.582Z,24.41
2019-04-29T08:53:38.995Z,24.47
2019-04-29T08:56:10.335Z,24.38
2019-04-29T08:58:39.755Z,24.17
2019-04-29T09:01:10.794Z,24.26
2019-04-29T09:03:41.013Z,24.23
2019-04-29T09:06:10.610Z,24.25
2019-04-29T09:08:54.015Z,24.37
2019-04-29T09:11:13.096Z,24.60
2019-04-29T09:13:42.360Z,24.58
2019-04-29T09:16:11.788Z,24.68
2019-04-29T09:18:41.259Z,24.62
2019-04-29T09:21:10.678Z,24.56
2019-04-29T09:23:40.117Z,24.52
2019-04-29T09:26:24.235Z,24.43
2019-04-29T09:28:53.529Z,24.65
2019-04-29T09:31:22.974Z,24.56
2019-04-29T09:34:06.012Z,24.44
2019-04-29T09:36:23.531Z,24.53
2019-04-29T09:38:52.961Z,24.71
2019-04-29T09:41:35.073Z,24.76
2019-04-29T09:44:25.569Z,24.82
2019-04-29T09:46:54.998Z,25.08
2019-04-29T09:49:24.436Z,25.65
2019-04-29T09:51:53.842Z,26.06
2019-04-29T09:54:23.303Z,26.60
2019-04-29T09:56:52.721Z,26.65
2019-04-29T09:59:24.335Z,26.63
2019-04-29T10:02:02.323Z,26.62
2019-04-29T10:04:40.556Z,26.66
2019-04-29T10:07:10.245Z,26.82
2019-04-29T10:09:39.676Z,26.95
2019-04-29T10:12:09.082Z,26.87
2019-04-29T10:14:38.516Z,26.73
2019-04-29T10:17:24.566Z,26.64
2019-04-29T10:20:10.500Z,26.85
2019-04-29T10:22:40.008Z,26.64
2019-04-29T10:25:09.443Z,26.84
2019-04-29T10:27:38.883Z,27.16
2019-04-29T10:30:08.446Z,27.68
2019-04-29T10:32:42.251Z,27.98
2019-04-29T10:35:10.731Z,27.96
2019-04-29T10:37:40.320Z,27.68
2019-04-29T10:40:21.130Z,27.86
2019-04-29T10:43:16.825Z,27.80
2019-04-29T10:46:07.459Z,28.50
2019-04-29T10:48:48.947Z,28.79
2019-04-29T10:51:18.352Z,28.88
2019-04-29T10:53:50.941Z,28.69
2019-04-29T10:56:19.519Z,28.92
2019-04-29T10:58:48.997Z,28.94
2019-04-29T11:02:14.074Z,28.84
2019-04-29T11:04:41.258Z,29.11
2019-04-29T11:07:26.444Z,29.46
2019-04-29T11:09:57.619Z,30.17
2019-04-29T11:12:27.025Z,30.23
2019-04-29T11:14:56.473Z,30.92
2019-04-29T11:17:27.594Z,30.45
2019-04-29T11:19:57.083Z,30.45
2019-04-29T11:22:33.879Z,31.32
2019-04-29T11:25:19.567Z,31.43
2019-04-29T11:27:51.926Z,31.49
2019-04-29T11:30:24.605Z,31.73
2019-04-29T11:33:07.666Z,31.55
2019-04-29T11:35:41.785Z,31.28
2019-04-29T11:38:12.035Z,32.09
2019-04-29T11:40:44.001Z,31.94
2019-04-29T11:43:15.592Z,32.24
2019-04-29T11:45:46.208Z,32.69
2019-04-29T11:48:15.707Z,33.69
2019-04-29T11:50:55.983Z,33.53
2019-04-29T11:53:25.421Z,34.28
2019-04-29T11:55:57.153Z,34.39
2019-04-29T11:58:44.862Z,34.83
2019-04-29T12:01:37.345Z,34.61
2019-04-29T12:03:56.538Z,34.48
2019-04-29T12:06:26.388Z,33.77
2019-04-29T12:08:56.686Z,34.36
2019-04-29T12:11:28.615Z,35.19
2019-04-29T12:14:16.878Z,34.57
2019-04-29T12:16:49.817Z,35.72
2019-04-29T12:19:25.392Z,36.31
2019-04-29T12:21:55.669Z,36.34
2019-04-29T12:24:25.231Z,36.45
2019-04-29T12:26:54.825Z,36.22
2019-04-29T12:29:24.496Z,35.73
2019-04-29T12:32:12.841Z,35.18
2019-04-29T12:35:01.127Z,34.80
2019-04-29T12:38:05.830Z,34.46
2019-04-29T12:40:55.217Z,35.02
2019-04-29T12:43:48.661Z,35.60
2019-04-29T12:46:37.798Z,34.50
2019-04-29T12:49:08.635Z,33.53
2019-04-29T12:51:38.612Z,33.66
2019-04-29T12:54:08.250Z,34.44
2019-04-29T12:56:43.110Z,33.66
2019-04-29T12:59:11.199Z,33.49
2019-04-29T13:02:14.672Z,34.94
2019-04-29T13:05:21.357Z,35.23
2019-04-29T13:08:12.779Z,34.82
2019-04-29T13:11:02.736Z,33.57
2019-04-29T13:13:32.165Z,33.51
2019-04-29T13:16:23.493Z,34.05
2019-04-29T13:19:12.268Z,34.38
2019-04-29T13:21:39.416Z,34.35
2019-04-29T13:24:22.033Z,34.52
2019-04-29T13:26:42.888Z,34.19
2019-04-29T13:29:25.850Z,33.52
2019-04-29T13:31:42.664Z,32.50
2019-04-29T13:34:24.016Z,30.90
2019-04-29T13:36:57.461Z,30.90
2019-04-29T13:39:17.775Z,30.37
2019-04-29T13:41:57.137Z,29.95
2019-04-29T13:44:19.726Z,30.25
2019-04-29T13:46:59.482Z,30.48
2019-04-29T13:49:49.435Z,30.92
2019-04-29T13:52:19.471Z,31.01
2019-04-29T13:54:48.972Z,30.95
2019-04-29T13:57:18.506Z,30.81
2019-04-29T13:59:59.271Z,30.48
2019-04-29T14:02:36.749Z,29.60
2019-04-29T14:05:08.223Z,29.04
2019-04-29T14:07:39.492Z,28.77
2019-04-29T14:10:10.316Z,28.38
2019-04-29T14:15:11.438Z,27.61
2019-04-29T14:17:41.022Z,27.60
2019-04-29T14:18:53.484Z,27.91
2019-04-29T14:20:15.449Z,27.82
2019-04-29T14:22:41.793Z,28.01
2019-04-29T14:25:13.424Z,27.98
2019-04-29T14:27:42.384Z,27.60
2019-04-29T14:30:14.529Z,27.53
2019-04-29T14:32:46.885Z,27.41
2019-04-29T14:35:21.345Z,26.90
2019-04-29T14:37:55.293Z,26.68
2019-04-29T14:40:22.032Z,26.60
2019-04-29T14:43:28.764Z,26.47
2019-04-29T14:46:15.940Z,26.45
2019-04-29T14:48:55.374Z,26.44
2019-04-29T14:51:28.453Z,26.53
2019-04-29T14:53:57.125Z,26.38
2019-04-29T14:56:27.216Z,26.18
2019-04-29T14:59:06.492Z,25.93
2019-04-29T15:01:51.020Z,25.80
2019-04-29T15:04:23.539Z,25.69
2019-04-29T15:06:53.035Z,25.56
2019-04-29T15:09:22.469Z,25.47
2019-04-29T15:12:06.930Z,25.56
2019-04-29T15:14:59.221Z,25.55
2019-04-29T15:18:00.633Z,25.40
2019-04-29T15:20:46.940Z,25.30
2019-04-29T15:23:28.034Z,25.25
2019-04-29T15:25:47.553Z,25.09
2019-04-29T15:28:18.916Z,25.00
2019-04-29T15:30:48.153Z,24.98
2019-04-29T15:33:17.665Z,24.94
2019-04-29T15:35:47.100Z,24.84
2019-04-29T15:38:16.511Z,24.81
2019-04-29T15:40:45.978Z,24.84
2019-04-29T15:43:17.828Z,24.81
2019-04-29T15:45:46.586Z,24.79
2019-04-29T15:48:16.121Z,24.70
2019-04-29T15:50:45.571Z,24.60
2019-04-29T15:53:15.005Z,24.58
2019-04-29T15:55:44.425Z,24.48
2019-04-29T15:58:13.872Z,24.45
2019-04-29T16:00:43.481Z,24.36
2019-04-29T16:03:17.588Z,24.28
2019-04-29T16:06:11.046Z,24.15
2019-04-29T16:08:32.451Z,23.89
2019-04-29T16:11:19.596Z,23.62
2019-04-29T16:14:07.984Z,23.38
2019-04-29T16:16:20.329Z,23.21
2019-04-29T16:18:49.741Z,23.07
2019-04-29T16:21:19.175Z,22.98
2019-04-29T16:23:48.619Z,22.99
2019-04-29T16:26:18.069Z,22.95
2019-04-29T16:28:47.487Z,22.90
2019-04-29T16:31:16.971Z,22.80
2019-04-29T16:33:47.314Z,22.72
2019-04-29T16:36:17.599Z,22.61
2019-04-29T16:38:51.355Z,22.51
2019-04-29T16:41:35.972Z,22.37
2019-04-29T16:44:06.740Z,22.24
2019-04-29T16:46:37.920Z,22.11
2019-04-29T16:49:07.611Z,21.95
2019-04-29T16:51:37.157Z,21.82
2019-04-29T16:54:06.616Z,21.73
2019-04-29T16:56:36.144Z,21.64
2019-04-29T16:59:09.091Z,21.50
2019-04-29T17:01:36.728Z,21.36
2019-04-29T17:04:06.227Z,21.30
2019-04-29T17:06:40.903Z,21.15
2019-04-29T17:09:25.088Z,21.00
2019-04-29T17:11:57.985Z,20.94
2019-04-29T17:14:27.191Z,20.80
2019-04-29T17:16:56.724Z,20.61
2019-04-29T17:19:26.158Z,20.60
2019-04-29T17:22:23.778Z,20.50
2019-04-29T17:24:26.870Z,20.39
2019-04-29T17:27:14.306Z,20.23
2019-04-29T17:30:09.276Z,20.07
2019-04-29T17:33:04.539Z,19.90
2019-04-29T17:35:36.273Z,19.74
2019-04-29T17:38:05.719Z,19.60
2019-04-29T17:40:35.217Z,19.48
2019-04-29T17:43:22.437Z,19.36
2019-04-29T17:46:00.414Z,19.23
2019-04-29T17:48:53.236Z,19.08
2019-04-29T17:51:24.804Z,18.95
2019-04-29T17:53:57.961Z,18.78
2019-04-29T17:56:36.219Z,18.69
2019-04-29T17:59:40.790Z,18.61
2019-04-29T18:02:28.021Z,18.49
2019-04-29T18:05:07.516Z,18.35
2019-04-29T18:07:51.334Z,18.22
2019-04-29T18:10:32.380Z,18.10
2019-04-29T18:13:04.254Z,17.99
2019-04-29T18:15:51.648Z,17.87
2019-04-29T18:18:12.364Z,17.75
2019-04-29T18:21:06.858Z,17.70
2019-04-29T18:24:00.984Z,17.64
2019-04-29T18:26:35.867Z,17.58
2019-04-29T18:29:07.793Z,17.36
2019-04-29T18:31:36.706Z,17.38
2019-04-29T18:34:06.142Z,17.35
2019-04-29T18:36:35.626Z,17.27
2019-04-29T18:39:07.294Z,17.21
2019-04-29T18:41:36.716Z,17.16
2019-04-29T18:44:07.217Z,17.08
2019-04-29T18:46:36.721Z,16.98
2019-04-29T18:49:07.196Z,16.91
2019-04-29T18:51:36.710Z,16.82
2019-04-29T18:54:06.287Z,16.74
2019-04-29T18:56:36.329Z,16.66
2019-04-29T18:59:06.837Z,16.60
2019-04-29T19:01:36.280Z,16.52
2019-04-29T19:04:25.467Z,16.47
2019-04-29T19:06:59.121Z,16.42
2019-04-29T19:09:32.150Z,16.34
2019-04-29T19:12:00.010Z,16.24
2019-04-29T19:14:29.456Z,16.18
2019-04-29T19:17:01.246Z,16.15
2019-04-29T19:19:30.769Z,16.12
2019-04-29T19:22:07.670Z,16.06
2019-04-29T19:24:36.356Z,16.02
2019-04-29T19:27:06.541Z,15.93
2019-04-29T19:29:38.745Z,15.90
2019-04-29T19:32:05.982Z,15.82
2019-04-29T19:34:42.860Z,15.75
2019-04-29T19:37:06.564Z,15.71
2019-04-29T19:39:35.983Z,15.69
2019-04-29T19:42:05.722Z,15.66
2019-04-29T19:44:36.741Z,15.59
2019-04-29T19:47:06.446Z,15.55
2019-04-29T19:49:36.067Z,15.52
2019-04-29T19:52:05.462Z,15.51
2019-04-29T19:54:34.911Z,15.49
2019-04-29T19:57:07.418Z,15.50
2019-04-29T19:59:36.764Z,15.47
2019-04-29T20:02:10.118Z,15.47
2019-04-29T20:04:59.676Z,15.49
2019-04-29T20:07:30.189Z,15.49
2019-04-29T20:10:05.248Z,15.49
2019-04-29T20:12:31.286Z,15.48
2019-04-29T20:15:02.294Z,15.44
2019-04-29T20:17:53.220Z,15.39
2019-04-29T20:20:36.918Z,15.30
2019-04-29T20:23:05.960Z,15.30
2019-04-29T20:25:38.283Z,15.30
2019-04-29T20:28:12.703Z,15.35
2019-04-29T20:30:37.993Z,15.40
2019-04-29T20:33:11.391Z,15.46
2019-04-29T20:35:40.335Z,15.49
2019-04-29T20:38:09.967Z,15.58
2019-04-29T20:40:43.041Z,15.68
2019-04-29T20:43:10.782Z,15.75
2019-04-29T20:45:40.262Z,15.79
2019-04-29T20:48:11.179Z,15.85
2019-04-29T20:50:41.303Z,15.93
2019-04-29T20:53:40.342Z,15.96
2019-04-29T20:56:12.696Z,15.98
2019-04-29T20:58:44.116Z,15.96
2019-04-29T21:01:18.085Z,16.00
2019-04-29T21:03:52.184Z,15.97
2019-04-29T21:06:18.670Z,15.97
2019-04-29T21:08:51.115Z,15.94
2019-04-29T21:11:26.496Z,15.97
2019-04-29T21:14:16.588Z,15.99
2019-04-29T21:16:47.825Z,15.97
2019-04-29T21:19:17.260Z,15.90
2019-04-29T21:21:47.542Z,15.87
2019-04-29T21:24:18.638Z,15.83
2019-04-29T21:26:48.220Z,15.77
2019-04-29T21:29:19.317Z,15.70
2019-04-29T21:31:50.581Z,15.68
2019-04-29T21:34:21.641Z,15.58
2019-04-29T21:37:06.557Z,15.49
2019-04-29T21:40:14.788Z,15.39
2019-04-29T21:42:58.424Z,15.31
2019-04-29T21:45:27.852Z,15.22
2019-04-29T21:47:57.392Z,15.16
2019-04-29T21:50:34.055Z,15.11
2019-04-29T21:53:02.010Z,15.08
2019-04-29T21:55:29.514Z,15.00
2019-04-29T21:58:00.197Z,14.97
2019-04-29T22:00:29.711Z,14.93
2019-04-29T22:02:59.209Z,14.84
2019-04-29T22:05:28.707Z,14.81
2019-04-29T22:07:58.174Z,14.77
2019-04-29T22:10:29.065Z,14.71
2019-04-29T22:13:02.086Z,14.70
2019-04-29T22:15:33.211Z,14.63
2019-04-29T22:18:01.810Z,14.58
2019-04-29T22:20:37.561Z,14.54
2019-04-29T22:23:08.344Z,14.49
2019-04-29T22:25:36.680Z,14.44
2019-04-29T22:28:06.182Z,14.43
2019-04-29T22:30:35.595Z,14.43
2019-04-29T22:33:05.330Z,14.45
2019-04-29T22:35:38.436Z,14.45
2019-04-29T22:38:07.938Z,14.46
2019-04-29T22:40:41.093Z,14.52
2019-04-29T22:43:19.560Z,14.56
2019-04-29T22:45:49.095Z,14.68
2019-04-29T22:48:19.827Z,14.80
2019-04-29T22:50:49.450Z,14.83
2019-04-29T22:53:18.875Z,14.82
2019-04-29T22:55:48.301Z,14.83
2019-04-29T22:58:17.761Z,14.81
2019-04-29T23:00:47.168Z,14.78
2019-04-29T23:03:16.609Z,14.75
2019-04-29T23:05:46.283Z,14.75
2019-04-29T23:08:15.884Z,14.70
2019-04-29T23:10:45.592Z,14.64
2019-04-29T23:13:15.114Z,14.63
